Aeroporto :
LOGIN :

Iscrizione | Disclaimer

   EN    FR    IT 

 










Sommario :    VFR   VFR Marginale   IFR   IFR Intensivo   IFR Molto Intensivo
Visibilità : 
Base nubi : 
>= 8 km
>= 3000ft
5 / 8 km
1000 / 3000 ft
1500m / 5 km
500 / 1000 ft
800 / 1500m
200 / 500 ft
< 800m
< 200 ft
Simboli :   Temporali  Nebbia  Neve Forte  Precipitazioni Forti  Vento > 20 kt
SIGMETs :   Varie  Temporali  Ghiacco  Turbolenza  Onda orograficha  Ceneri Vulcaniche






- Altitudine del aeroporto : 33 ft
- Codice IATA : PLQ


EYPA - Palanga

ULTIMO METAR :
  • 022220Z 29007KT 230V360 9999 BKN019 17/13 Q1005

METARs OBSOLETI :
  • 022150Z 29007KT 230V340 9999 BKN019 17/13 Q1005
  • 022120Z 28008KT 240V350 9999 SCT018 BKN021 17/14 Q1005
  • 022050Z 29009G19KT 230V360 9999 BKN020 18/13 Q1004
  • 022020Z 28008KT 220V330 9999 SCT021 BKN046 18/14 Q1004
  • 021950Z 28008G18KT 200V340 9999 BKN019 BKN088 18/14 Q1004

TAF TAF EYPA
Valido dal 02 a 18 ore il 03 a 18 ore UTC


021702Z 0218/0318 27008KT 9000 SCT020
TEMPO 0218/0304 VRB18KT SCT010 BKN015CB
TEMPO 0304/0307 VRB18KT 5000 SHRA SCT005 BKN015CB
TEMPO 0307/0312 BKN015CB



MetMap, La meteo Aeronautica in un colpo d'occhio ! - Copyright ORBIFLY Dicembre 2007 - Disclaimer

ORBIFLY MET'MAP TEAM :

Programmazione e sviluppo : Alexandra Zaïnal
Concezione : Baudouin d'Aumeries
Aiuto per la programmazione : Marc-Olivier Méhu
Supporto tecnico e logistico : Manuel Goepfert
Aiuto per la traduzione : Arnaldo La Scala

Contatto : metmap@orbifly.com




FONTI E CREDITI :

   NOAA